Terminal Aerodrome Forecast
Issued by NWS

Home | Current Version | Previous Version | Text Only | Print | Product List | Glossary On
Versions: 1 2 3 4 5 6 7 8 9 10 11 12 13 14 15 16 17 18 19 20 21 22 23 24
000
FTAK31 PANC 162342
TAFAAQ
TAF
PAAQ 162342Z 1700/1724 15010KT P6SM VCSH SCT025 OVC070
      TEMPO 1700/1704 -SHRA BKN045
     FM171800 15008KT P6SM -SHRA FEW030 BKN040=

USA.gov is the U.S. government's official web portal to all federal, state and local government web resources and services.